sensor_id;sensor_type;location;lat;lon;timestamp;temperature;humidity
19037;DHT22;9651;49.138;8.900;2023-04-25T00:03:10;9.40;99.90
19037;DHT22;9651;49.138;8.900;2023-04-25T00:07:14;9.40;99.90
19037;DHT22;9651;49.138;8.900;2023-04-25T00:11:16;9.40;99.90
19037;DHT22;9651;49.138;8.900;2023-04-25T00:15:17;9.50;99.90
19037;DHT22;9651;49.138;8.900;2023-04-25T00:19:19;9.50;99.90
19037;DHT22;9651;49.138;8.900;2023-04-25T00:23:22;9.50;99.90
19037;DHT22;9651;49.138;8.900;2023-04-25T00:27:24;9.50;99.90
19037;DHT22;9651;49.138;8.900;2023-04-25T00:31:26;9.50;99.90
19037;DHT22;9651;49.138;8.900;2023-04-25T00:35:29;9.50;99.90
19037;DHT22;9651;49.138;8.900;2023-04-25T00:39:32;9.60;99.90
19037;DHT22;9651;49.138;8.900;2023-04-25T00:43:36;9.60;99.90
19037;DHT22;9651;49.138;8.900;2023-04-25T00:47:38;9.50;99.90
19037;DHT22;9651;49.138;8.900;2023-04-25T00:51:41;9.60;99.90
19037;DHT22;9651;49.138;8.900;2023-04-25T00:55:45;9.50;99.90
19037;DHT22;9651;49.138;8.900;2023-04-25T00:59:48;9.50;99.90
19037;DHT22;9651;49.138;8.900;2023-04-25T01:03:53;9.50;99.90
19037;DHT22;9651;49.138;8.900;2023-04-25T01:07:56;9.50;99.90
19037;DHT22;9651;49.138;8.900;2023-04-25T01:11:59;9.50;99.90
19037;DHT22;9651;49.138;8.900;2023-04-25T01:16:02;9.50;99.90
19037;DHT22;9651;49.138;8.900;2023-04-25T01:20:06;9.60;99.90
19037;DHT22;9651;49.138;8.900;2023-04-25T01:24:11;9.60;99.90
19037;DHT22;9651;49.138;8.900;2023-04-25T01:28:13;9.50;99.90
19037;DHT22;9651;49.138;8.900;2023-04-25T01:32:16;9.50;99.90
19037;DHT22;9651;49.138;8.900;2023-04-25T01:36:18;9.40;99.90
19037;DHT22;9651;49.138;8.900;2023-04-25T01:40:22;9.40;99.90
19037;DHT22;9651;49.138;8.900;2023-04-25T01:44:25;9.40;99.90
19037;DHT22;9651;49.138;8.900;2023-04-25T01:48:28;9.30;99.90
19037;DHT22;9651;49.138;8.900;2023-04-25T01:52:30;9.30;99.90
19037;DHT22;9651;49.138;8.900;2023-04-25T01:56:37;9.20;99.90
19037;DHT22;9651;49.138;8.900;2023-04-25T02:00:41;9.30;99.90
19037;DHT22;9651;49.138;8.900;2023-04-25T02:04:43;9.30;99.90
19037;DHT22;9651;49.138;8.900;2023-04-25T02:08:45;9.30;99.90
19037;DHT22;9651;49.138;8.900;2023-04-25T02:12:49;9.30;99.90
19037;DHT22;9651;49.138;8.900;2023-04-25T02:17:10;9.30;99.90
19037;DHT22;9651;49.138;8.900;2023-04-25T02:21:13;9.40;99.90
19037;DHT22;9651;49.138;8.900;2023-04-25T02:25:17;9.30;99.90
19037;DHT22;9651;49.138;8.900;2023-04-25T02:29:22;9.30;99.90
19037;DHT22;9651;49.138;8.900;2023-04-25T02:33:24;9.30;99.90
19037;DHT22;9651;49.138;8.900;2023-04-25T02:37:25;9.30;99.90
19037;DHT22;9651;49.138;8.900;2023-04-25T02:41:27;9.30;99.90
19037;DHT22;9651;49.138;8.900;2023-04-25T02:45:31;9.30;99.90
19037;DHT22;9651;49.138;8.900;2023-04-25T02:49:33;9.30;99.90
19037;DHT22;9651;49.138;8.900;2023-04-25T02:53:35;9.30;99.90
19037;DHT22;9651;49.138;8.900;2023-04-25T02:57:37;9.30;99.90
19037;DHT22;9651;49.138;8.900;2023-04-25T03:01:41;9.30;99.90
19037;DHT22;9651;49.138;8.900;2023-04-25T03:05:43;9.20;99.90
19037;DHT22;9651;49.138;8.900;2023-04-25T03:09:46;9.20;99.90
19037;DHT22;9651;49.138;8.900;2023-04-25T03:13:48;9.10;99.90
19037;DHT22;9651;49.138;8.900;2023-04-25T03:17:51;9.00;99.90
19037;DHT22;9651;49.138;8.900;2023-04-25T03:21:53;9.00;99.90
19037;DHT22;9651;49.138;8.900;2023-04-25T03:25:54;9.00;99.90
19037;DHT22;9651;49.138;8.900;2023-04-25T03:29:56;9.00;99.90
19037;DHT22;9651;49.138;8.900;2023-04-25T03:34:00;9.00;99.90
19037;DHT22;9651;49.138;8.900;2023-04-25T03:38:02;9.00;99.90
19037;DHT22;9651;49.138;8.900;2023-04-25T03:42:08;9.00;99.90
19037;DHT22;9651;49.138;8.900;2023-04-25T03:46:10;9.00;99.90
19037;DHT22;9651;49.138;8.900;2023-04-25T03:50:14;8.90;99.90
19037;DHT22;9651;49.138;8.900;2023-04-25T03:54:16;8.90;99.90
19037;DHT22;9651;49.138;8.900;2023-04-25T03:58:30;8.80;99.90
19037;DHT22;9651;49.138;8.900;2023-04-25T04:02:32;8.80;99.90
19037;DHT22;9651;49.138;8.900;2023-04-25T04:06:36;8.80;99.90
19037;DHT22;9651;49.138;8.900;2023-04-25T04:10:50;8.80;99.90
19037;DHT22;9651;49.138;8.900;2023-04-25T04:14:52;8.80;99.90
19037;DHT22;9651;49.138;8.900;2023-04-25T04:18:54;8.80;99.90
19037;DHT22;9651;49.138;8.900;2023-04-25T04:22:57;8.80;99.90
19037;DHT22;9651;49.138;8.900;2023-04-25T04:26:59;8.80;99.90
19037;DHT22;9651;49.138;8.900;2023-04-25T04:31:10;8.80;99.90
19037;DHT22;9651;49.138;8.900;2023-04-25T04:35:12;8.80;99.90
19037;DHT22;9651;49.138;8.900;2023-04-25T04:39:16;8.90;99.90
19037;DHT22;9651;49.138;8.900;2023-04-25T04:43:33;8.80;99.90
19037;DHT22;9651;49.138;8.900;2023-04-25T04:48:01;8.80;99.90
19037;DHT22;9651;49.138;8.900;2023-04-25T04:52:09;8.80;99.90
19037;DHT22;9651;49.138;8.900;2023-04-25T04:56:26;8.80;99.90
19037;DHT22;9651;49.138;8.900;2023-04-25T05:00:57;8.80;99.90
19037;DHT22;9651;49.138;8.900;2023-04-25T05:05:24;8.80;99.90
19037;DHT22;9651;49.138;8.900;2023-04-25T05:09:59;8.80;99.90
19037;DHT22;9651;49.138;8.900;2023-04-25T05:14:08;8.90;99.90
19037;DHT22;9651;49.138;8.900;2023-04-25T05:18:30;8.90;99.90
19037;DHT22;9651;49.138;8.900;2023-04-25T05:22:40;8.90;99.90
19037;DHT22;9651;49.138;8.900;2023-04-25T05:27:06;9.00;99.90
19037;DHT22;9651;49.138;8.900;2023-04-25T05:31:28;9.20;99.90
19037;DHT22;9651;49.138;8.900;2023-04-25T05:35:41;9.30;99.90
19037;DHT22;9651;49.138;8.900;2023-04-25T05:39:45;9.40;99.90
19037;DHT22;9651;49.138;8.900;2023-04-25T05:44:19;9.50;99.90
19037;DHT22;9651;49.138;8.900;2023-04-25T05:48:43;9.60;99.90
19037;DHT22;9651;49.138;8.900;2023-04-25T05:53:10;9.70;99.90
19037;DHT22;9651;49.138;8.900;2023-04-25T05:57:22;9.80;99.90
19037;DHT22;9651;49.138;8.900;2023-04-25T06:01:24;9.90;99.90
19037;DHT22;9651;49.138;8.900;2023-04-25T06:05:28;10.00;99.90
19037;DHT22;9651;49.138;8.900;2023-04-25T06:09:30;10.20;99.90
19037;DHT22;9651;49.138;8.900;2023-04-25T06:13:33;10.30;99.90
19037;DHT22;9651;49.138;8.900;2023-04-25T06:17:35;10.50;99.90
19037;DHT22;9651;49.138;8.900;2023-04-25T06:21:39;10.70;99.90
19037;DHT22;9651;49.138;8.900;2023-04-25T06:25:42;10.80;99.90
19037;DHT22;9651;49.138;8.900;2023-04-25T06:29:44;11.00;99.90
19037;DHT22;9651;49.138;8.900;2023-04-25T06:33:46;11.10;99.90
19037;DHT22;9651;49.138;8.900;2023-04-25T06:37:50;11.30;99.90
19037;DHT22;9651;49.138;8.900;2023-04-25T06:41:56;11.40;99.90
19037;DHT22;9651;49.138;8.900;2023-04-25T06:46:18;11.50;99.90
19037;DHT22;9651;49.138;8.900;2023-04-25T06:50:23;11.60;99.90
19037;DHT22;9651;49.138;8.900;2023-04-25T06:54:26;11.50;99.90
19037;DHT22;9651;49.138;8.900;2023-04-25T06:58:37;11.40;99.90
19037;DHT22;9651;49.138;8.900;2023-04-25T07:03:05;11.40;99.90
19037;DHT22;9651;49.138;8.900;2023-04-25T07:07:07;11.30;99.90
19037;DHT22;9651;49.138;8.900;2023-04-25T07:11:29;11.20;99.90
19037;DHT22;9651;49.138;8.900;2023-04-25T07:15:31;11.20;99.90
19037;DHT22;9651;49.138;8.900;2023-04-25T07:19:34;11.10;99.90
19037;DHT22;9651;49.138;8.900;2023-04-25T07:23:38;11.00;99.90
19037;DHT22;9651;49.138;8.900;2023-04-25T07:27:47;11.20;99.90
19037;DHT22;9651;49.138;8.900;2023-04-25T07:31:52;11.30;99.90
19037;DHT22;9651;49.138;8.900;2023-04-25T07:35:55;11.40;99.90
19037;DHT22;9651;49.138;8.900;2023-04-25T07:39:58;11.30;99.90
19037;DHT22;9651;49.138;8.900;2023-04-25T07:44:01;11.40;99.90
19037;DHT22;9651;49.138;8.900;2023-04-25T07:48:05;11.60;99.90
19037;DHT22;9651;49.138;8.900;2023-04-25T07:52:10;11.70;99.90
19037;DHT22;9651;49.138;8.900;2023-04-25T07:56:17;11.70;99.90
19037;DHT22;9651;49.138;8.900;2023-04-25T08:00:23;11.70;99.90
19037;DHT22;9651;49.138;8.900;2023-04-25T08:04:36;11.80;99.90
19037;DHT22;9651;49.138;8.900;2023-04-25T08:08:42;11.80;99.90
19037;DHT22;9651;49.138;8.900;2023-04-25T08:12:47;11.80;99.90
19037;DHT22;9651;49.138;8.900;2023-04-25T08:16:50;11.80;99.90
19037;DHT22;9651;49.138;8.900;2023-04-25T08:20:54;11.70;99.90
19037;DHT22;9651;49.138;8.900;2023-04-25T08:24:56;11.70;99.90
19037;DHT22;9651;49.138;8.900;2023-04-25T08:28:58;11.70;99.90
19037;DHT22;9651;49.138;8.900;2023-04-25T08:33:01;11.80;99.90
19037;DHT22;9651;49.138;8.900;2023-04-25T08:37:29;11.70;99.90
19037;DHT22;9651;49.138;8.900;2023-04-25T08:41:37;11.70;99.90
19037;DHT22;9651;49.138;8.900;2023-04-25T08:45:41;11.70;99.90
19037;DHT22;9651;49.138;8.900;2023-04-25T08:49:49;11.70;99.90
19037;DHT22;9651;49.138;8.900;2023-04-25T08:53:55;11.70;99.90
19037;DHT22;9651;49.138;8.900;2023-04-25T08:57:59;11.60;99.90
19037;DHT22;9651;49.138;8.900;2023-04-25T09:02:01;11.50;99.90
19037;DHT22;9651;49.138;8.900;2023-04-25T09:06:07;11.40;99.90
19037;DHT22;9651;49.138;8.900;2023-04-25T09:10:10;11.30;99.90
19037;DHT22;9651;49.138;8.900;2023-04-25T09:14:14;11.10;99.90
19037;DHT22;9651;49.138;8.900;2023-04-25T09:18:39;10.90;99.90
19037;DHT22;9651;49.138;8.900;2023-04-25T09:22:45;10.80;99.90
19037;DHT22;9651;49.138;8.900;2023-04-25T09:26:48;10.70;99.90
19037;DHT22;9651;49.138;8.900;2023-04-25T09:30:55;10.70;99.90
19037;DHT22;9651;49.138;8.900;2023-04-25T09:35:04;10.90;99.90
19037;DHT22;9651;49.138;8.900;2023-04-25T09:39:12;11.20;99.90
19037;DHT22;9651;49.138;8.900;2023-04-25T09:43:20;11.30;99.90
19037;DHT22;9651;49.138;8.900;2023-04-25T09:47:31;11.60;99.90
19037;DHT22;9651;49.138;8.900;2023-04-25T09:51:35;11.50;99.90
19037;DHT22;9651;49.138;8.900;2023-04-25T09:55:42;11.50;99.90
19037;DHT22;9651;49.138;8.900;2023-04-25T09:59:46;11.90;99.90
19037;DHT22;9651;49.138;8.900;2023-04-25T10:03:50;12.10;99.90
19037;DHT22;9651;49.138;8.900;2023-04-25T10:08:15;12.10;99.90
19037;DHT22;9651;49.138;8.900;2023-04-25T10:12:19;12.50;99.90
19037;DHT22;9651;49.138;8.900;2023-04-25T10:16:21;12.60;99.90
19037;DHT22;9651;49.138;8.900;2023-04-25T10:20:24;12.90;99.90
19037;DHT22;9651;49.138;8.900;2023-04-25T10:24:27;13.90;99.90
19037;DHT22;9651;49.138;8.900;2023-04-25T10:28:58;14.20;99.90
19037;DHT22;9651;49.138;8.900;2023-04-25T10:33:00;14.80;99.90
19037;DHT22;9651;49.138;8.900;2023-04-25T10:37:02;14.90;99.90
19037;DHT22;9651;49.138;8.900;2023-04-25T10:41:04;15.00;99.90
19037;DHT22;9651;49.138;8.900;2023-04-25T10:45:10;14.80;99.90
19037;DHT22;9651;49.138;8.900;2023-04-25T10:49:29;14.60;99.90
19037;DHT22;9651;49.138;8.900;2023-04-25T10:53:33;14.60;99.90
19037;DHT22;9651;49.138;8.900;2023-04-25T10:57:40;14.90;99.90
19037;DHT22;9651;49.138;8.900;2023-04-25T11:01:44;15.00;99.90
19037;DHT22;9651;49.138;8.900;2023-04-25T11:05:47;14.90;99.90
19037;DHT22;9651;49.138;8.900;2023-04-25T11:09:50;14.60;99.90
19037;DHT22;9651;49.138;8.900;2023-04-25T11:13:52;14.40;99.90
19037;DHT22;9651;49.138;8.900;2023-04-25T11:17:55;14.50;99.90
19037;DHT22;9651;49.138;8.900;2023-04-25T11:21:57;14.80;99.90
19037;DHT22;9651;49.138;8.900;2023-04-25T11:26:00;15.00;99.90
19037;DHT22;9651;49.138;8.900;2023-04-25T11:30:13;15.00;99.90
19037;DHT22;9651;49.138;8.900;2023-04-25T11:34:18;15.00;99.90
19037;DHT22;9651;49.138;8.900;2023-04-25T11:38:20;14.90;99.90
19037;DHT22;9651;49.138;8.900;2023-04-25T11:42:22;14.30;99.90
19037;DHT22;9651;49.138;8.900;2023-04-25T11:46:24;14.20;99.90
19037;DHT22;9651;49.138;8.900;2023-04-25T11:50:28;14.20;99.90
19037;DHT22;9651;49.138;8.900;2023-04-25T11:54:30;14.60;99.90
19037;DHT22;9651;49.138;8.900;2023-04-25T11:58:32;15.00;99.90
19037;DHT22;9651;49.138;8.900;2023-04-25T12:02:35;15.50;99.90
19037;DHT22;9651;49.138;8.900;2023-04-25T12:06:38;15.30;99.90
19037;DHT22;9651;49.138;8.900;2023-04-25T12:10:42;15.20;99.90
19037;DHT22;9651;49.138;8.900;2023-04-25T12:14:47;14.70;99.90
19037;DHT22;9651;49.138;8.900;2023-04-25T12:18:51;14.90;99.90
19037;DHT22;9651;49.138;8.900;2023-04-25T12:22:57;14.80;99.90
19037;DHT22;9651;49.138;8.900;2023-04-25T12:27:01;14.30;99.90
19037;DHT22;9651;49.138;8.900;2023-04-25T12:31:04;14.40;99.90
19037;DHT22;9651;49.138;8.900;2023-04-25T12:35:07;14.80;99.90
19037;DHT22;9651;49.138;8.900;2023-04-25T12:39:14;14.30;99.90
19037;DHT22;9651;49.138;8.900;2023-04-25T12:43:16;14.50;99.90
19037;DHT22;9651;49.138;8.900;2023-04-25T12:47:19;14.60;99.90
19037;DHT22;9651;49.138;8.900;2023-04-25T12:51:21;15.00;99.90
19037;DHT22;9651;49.138;8.900;2023-04-25T12:55:26;15.30;99.90
19037;DHT22;9651;49.138;8.900;2023-04-25T12:59:28;15.40;99.90
19037;DHT22;9651;49.138;8.900;2023-04-25T13:03:30;15.10;99.90
19037;DHT22;9651;49.138;8.900;2023-04-25T13:07:32;14.70;99.90
19037;DHT22;9651;49.138;8.900;2023-04-25T13:11:35;14.80;99.90
19037;DHT22;9651;49.138;8.900;2023-04-25T13:15:37;17.80;99.90
19037;DHT22;9651;49.138;8.900;2023-04-25T13:19:39;21.10;99.90
19037;DHT22;9651;49.138;8.900;2023-04-25T13:23:41;21.10;99.90
19037;DHT22;9651;49.138;8.900;2023-04-25T13:27:46;21.30;99.90
19037;DHT22;9651;49.138;8.900;2023-04-25T13:31:48;20.80;99.90
19037;DHT22;9651;49.138;8.900;2023-04-25T13:35:50;19.30;99.90
19037;DHT22;9651;49.138;8.900;2023-04-25T13:39:54;18.00;99.90
19037;DHT22;9651;49.138;8.900;2023-04-25T13:44:01;17.30;99.90
19037;DHT22;9651;49.138;8.900;2023-04-25T13:48:03;17.10;99.90
19037;DHT22;9651;49.138;8.900;2023-04-25T13:52:05;16.70;99.90
19037;DHT22;9651;49.138;8.900;2023-04-25T13:56:08;16.30;99.90
19037;DHT22;9651;49.138;8.900;2023-04-25T14:00:14;15.70;99.90
19037;DHT22;9651;49.138;8.900;2023-04-25T14:04:16;15.30;99.90
19037;DHT22;9651;49.138;8.900;2023-04-25T14:08:18;15.30;99.90
19037;DHT22;9651;49.138;8.900;2023-04-25T14:12:20;15.70;99.90
19037;DHT22;9651;49.138;8.900;2023-04-25T14:16:23;16.00;99.90
19037;DHT22;9651;49.138;8.900;2023-04-25T14:20:25;16.20;99.90
19037;DHT22;9651;49.138;8.900;2023-04-25T14:24:27;15.80;99.90
19037;DHT22;9651;49.138;8.900;2023-04-25T14:28:29;15.70;99.90
19037;DHT22;9651;49.138;8.900;2023-04-25T14:32:32;15.60;99.90
19037;DHT22;9651;49.138;8.900;2023-04-25T14:36:35;16.30;99.90
19037;DHT22;9651;49.138;8.900;2023-04-25T14:40:37;17.50;99.90
19037;DHT22;9651;49.138;8.900;2023-04-25T14:44:39;18.20;99.90
19037;DHT22;9651;49.138;8.900;2023-04-25T14:48:43;17.80;99.90
19037;DHT22;9651;49.138;8.900;2023-04-25T14:52:45;17.00;99.90
19037;DHT22;9651;49.138;8.900;2023-04-25T14:56:47;16.10;99.90
19037;DHT22;9651;49.138;8.900;2023-04-25T15:00:49;15.10;99.90
19037;DHT22;9651;49.138;8.900;2023-04-25T15:04:52;14.80;99.90
19037;DHT22;9651;49.138;8.900;2023-04-25T15:08:54;14.60;99.90
19037;DHT22;9651;49.138;8.900;2023-04-25T15:12:57;14.50;99.90
19037;DHT22;9651;49.138;8.900;2023-04-25T15:16:59;14.60;99.90
19037;DHT22;9651;49.138;8.900;2023-04-25T15:21:03;14.80;99.90
19037;DHT22;9651;49.138;8.900;2023-04-25T15:25:06;14.90;99.90
19037;DHT22;9651;49.138;8.900;2023-04-25T15:29:08;15.40;99.90
19037;DHT22;9651;49.138;8.900;2023-04-25T15:33:10;15.70;99.90
19037;DHT22;9651;49.138;8.900;2023-04-25T15:37:13;15.80;99.90
19037;DHT22;9651;49.138;8.900;2023-04-25T15:41:15;15.80;99.90
19037;DHT22;9651;49.138;8.900;2023-04-25T15:45:19;15.70;99.90
19037;DHT22;9651;49.138;8.900;2023-04-25T15:49:21;15.60;99.90
19037;DHT22;9651;49.138;8.900;2023-04-25T15:53:25;15.20;99.90
19037;DHT22;9651;49.138;8.900;2023-04-25T15:57:27;14.90;99.90
19037;DHT22;9651;49.138;8.900;2023-04-25T16:01:29;14.70;99.90
19037;DHT22;9651;49.138;8.900;2023-04-25T16:05:31;14.60;99.90
19037;DHT22;9651;49.138;8.900;2023-04-25T16:09:34;14.50;99.90
19037;DHT22;9651;49.138;8.900;2023-04-25T16:13:37;14.20;99.90
19037;DHT22;9651;49.138;8.900;2023-04-25T16:17:38;14.10;99.90
19037;DHT22;9651;49.138;8.900;2023-04-25T16:21:41;13.80;99.90
19037;DHT22;9651;49.138;8.900;2023-04-25T16:25:44;13.60;99.90
19037;DHT22;9651;49.138;8.900;2023-04-25T16:29:47;13.40;99.90
19037;DHT22;9651;49.138;8.900;2023-04-25T16:33:51;13.30;99.90
19037;DHT22;9651;49.138;8.900;2023-04-25T16:37:52;13.10;99.90
19037;DHT22;9651;49.138;8.900;2023-04-25T16:41:56;13.00;99.90
19037;DHT22;9651;49.138;8.900;2023-04-25T16:45:58;12.90;99.90
19037;DHT22;9651;49.138;8.900;2023-04-25T16:50:00;12.60;99.90
19037;DHT22;9651;49.138;8.900;2023-04-25T16:54:03;12.50;99.90
19037;DHT22;9651;49.138;8.900;2023-04-25T16:58:06;12.20;99.90
19037;DHT22;9651;49.138;8.900;2023-04-25T17:02:11;12.10;99.90
19037;DHT22;9651;49.138;8.900;2023-04-25T17:06:14;11.90;99.90
19037;DHT22;9651;49.138;8.900;2023-04-25T17:10:17;11.80;99.90
19037;DHT22;9651;49.138;8.900;2023-04-25T17:14:20;11.50;99.90
19037;DHT22;9651;49.138;8.900;2023-04-25T17:18:22;11.30;99.90
19037;DHT22;9651;49.138;8.900;2023-04-25T17:22:24;11.20;99.90
19037;DHT22;9651;49.138;8.900;2023-04-25T17:26:27;11.10;99.90
19037;DHT22;9651;49.138;8.900;2023-04-25T17:30:30;10.90;99.90
19037;DHT22;9651;49.138;8.900;2023-04-25T17:34:32;10.80;99.90
19037;DHT22;9651;49.138;8.900;2023-04-25T17:38:37;10.80;99.90
19037;DHT22;9651;49.138;8.900;2023-04-25T17:42:39;10.70;99.90
19037;DHT22;9651;49.138;8.900;2023-04-25T17:46:44;10.80;99.90
19037;DHT22;9651;49.138;8.900;2023-04-25T17:50:46;10.60;99.90
19037;DHT22;9651;49.138;8.900;2023-04-25T17:54:48;10.50;99.90
19037;DHT22;9651;49.138;8.900;2023-04-25T17:58:50;10.50;99.90
19037;DHT22;9651;49.138;8.900;2023-04-25T18:02:53;10.30;99.90
19037;DHT22;9651;49.138;8.900;2023-04-25T18:06:55;10.30;99.90
19037;DHT22;9651;49.138;8.900;2023-04-25T18:10:57;10.30;99.90
19037;DHT22;9651;49.138;8.900;2023-04-25T18:14:59;10.20;99.90
19037;DHT22;9651;49.138;8.900;2023-04-25T18:19:02;10.10;99.90
19037;DHT22;9651;49.138;8.900;2023-04-25T18:23:11;10.00;99.90
19037;DHT22;9651;49.138;8.900;2023-04-25T18:27:13;9.90;99.90
19037;DHT22;9651;49.138;8.900;2023-04-25T18:31:15;9.90;99.90
19037;DHT22;9651;49.138;8.900;2023-04-25T18:35:18;9.90;99.90
19037;DHT22;9651;49.138;8.900;2023-04-25T18:39:21;9.80;99.90
19037;DHT22;9651;49.138;8.900;2023-04-25T18:43:23;9.80;99.90
19037;DHT22;9651;49.138;8.900;2023-04-25T18:47:25;9.70;99.90
19037;DHT22;9651;49.138;8.900;2023-04-25T18:51:29;9.70;99.90
19037;DHT22;9651;49.138;8.900;2023-04-25T18:55:31;9.70;99.90
19037;DHT22;9651;49.138;8.900;2023-04-25T18:59:33;9.70;99.90
19037;DHT22;9651;49.138;8.900;2023-04-25T19:03:35;9.60;99.90
19037;DHT22;9651;49.138;8.900;2023-04-25T19:07:39;9.50;99.90
19037;DHT22;9651;49.138;8.900;2023-04-25T19:11:41;9.50;99.90
19037;DHT22;9651;49.138;8.900;2023-04-25T19:15:42;9.40;99.90
19037;DHT22;9651;49.138;8.900;2023-04-25T19:19:44;9.40;99.90
19037;DHT22;9651;49.138;8.900;2023-04-25T19:23:48;9.30;99.90
19037;DHT22;9651;49.138;8.900;2023-04-25T19:27:52;9.20;99.90
19037;DHT22;9651;49.138;8.900;2023-04-25T19:31:54;9.00;99.90
19037;DHT22;9651;49.138;8.900;2023-04-25T19:35:56;8.90;99.90
19037;DHT22;9651;49.138;8.900;2023-04-25T19:39:59;8.90;99.90
19037;DHT22;9651;49.138;8.900;2023-04-25T19:44:02;8.80;99.90
19037;DHT22;9651;49.138;8.900;2023-04-25T19:48:06;8.80;99.90
19037;DHT22;9651;49.138;8.900;2023-04-25T19:52:09;8.80;99.90
19037;DHT22;9651;49.138;8.900;2023-04-25T19:56:15;8.80;99.90
19037;DHT22;9651;49.138;8.900;2023-04-25T20:00:18;8.90;99.90
19037;DHT22;9651;49.138;8.900;2023-04-25T20:04:21;8.80;99.90
19037;DHT22;9651;49.138;8.900;2023-04-25T20:08:24;8.70;99.90
19037;DHT22;9651;49.138;8.900;2023-04-25T20:12:27;8.70;99.90
19037;DHT22;9651;49.138;8.900;2023-04-25T20:16:29;8.50;99.90
19037;DHT22;9651;49.138;8.900;2023-04-25T20:20:31;8.40;99.90
19037;DHT22;9651;49.138;8.900;2023-04-25T20:24:33;8.40;99.90
19037;DHT22;9651;49.138;8.900;2023-04-25T20:28:37;8.30;99.90
19037;DHT22;9651;49.138;8.900;2023-04-25T20:32:39;8.20;99.90
19037;DHT22;9651;49.138;8.900;2023-04-25T20:36:41;8.10;99.90
19037;DHT22;9651;49.138;8.900;2023-04-25T20:40:43;8.10;99.90
19037;DHT22;9651;49.138;8.900;2023-04-25T20:44:46;8.20;99.90
19037;DHT22;9651;49.138;8.900;2023-04-25T20:48:48;8.20;99.90
19037;DHT22;9651;49.138;8.900;2023-04-25T20:52:51;8.20;99.90
19037;DHT22;9651;49.138;8.900;2023-04-25T20:56:53;8.20;99.90
19037;DHT22;9651;49.138;8.900;2023-04-25T21:00:57;8.20;99.90
19037;DHT22;9651;49.138;8.900;2023-04-25T21:04:59;8.20;99.90
19037;DHT22;9651;49.138;8.900;2023-04-25T21:09:01;8.20;99.90
19037;DHT22;9651;49.138;8.900;2023-04-25T21:13:04;8.20;99.90
19037;DHT22;9651;49.138;8.900;2023-04-25T21:17:07;8.20;99.90
19037;DHT22;9651;49.138;8.900;2023-04-25T21:21:09;8.20;99.90
19037;DHT22;9651;49.138;8.900;2023-04-25T21:25:11;8.20;99.90
19037;DHT22;9651;49.138;8.900;2023-04-25T21:29:14;8.20;99.90
19037;DHT22;9651;49.138;8.900;2023-04-25T21:33:18;8.20;99.90
19037;DHT22;9651;49.138;8.900;2023-04-25T21:37:20;8.10;99.90
19037;DHT22;9651;49.138;8.900;2023-04-25T21:41:22;8.10;99.90
19037;DHT22;9651;49.138;8.900;2023-04-25T21:45:25;8.20;99.90
19037;DHT22;9651;49.138;8.900;2023-04-25T21:49:30;8.20;99.90
19037;DHT22;9651;49.138;8.900;2023-04-25T21:53:32;8.20;99.90
19037;DHT22;9651;49.138;8.900;2023-04-25T21:57:34;8.20;99.90
19037;DHT22;9651;49.138;8.900;2023-04-25T22:01:36;8.20;99.90
19037;DHT22;9651;49.138;8.900;2023-04-25T22:05:40;8.20;99.90
19037;DHT22;9651;49.138;8.900;2023-04-25T22:09:42;8.20;99.90
19037;DHT22;9651;49.138;8.900;2023-04-25T22:13:44;8.20;99.90
19037;DHT22;9651;49.138;8.900;2023-04-25T22:17:46;8.10;99.90
19037;DHT22;9651;49.138;8.900;2023-04-25T22:21:50;8.10;99.90
19037;DHT22;9651;49.138;8.900;2023-04-25T22:25:51;8.20;99.90
19037;DHT22;9651;49.138;8.900;2023-04-25T22:29:54;8.20;99.90
19037;DHT22;9651;49.138;8.900;2023-04-25T22:33:56;8.20;99.90
19037;DHT22;9651;49.138;8.900;2023-04-25T22:37:59;8.20;99.90
19037;DHT22;9651;49.138;8.900;2023-04-25T22:42:01;8.10;99.90
19037;DHT22;9651;49.138;8.900;2023-04-25T22:46:03;8.10;99.90
19037;DHT22;9651;49.138;8.900;2023-04-25T22:50:06;8.10;99.90
19037;DHT22;9651;49.138;8.900;2023-04-25T22:54:13;8.10;99.90
19037;DHT22;9651;49.138;8.900;2023-04-25T22:58:15;8.00;99.90
19037;DHT22;9651;49.138;8.900;2023-04-25T23:02:18;7.90;99.90
19037;DHT22;9651;49.138;8.900;2023-04-25T23:06:20;7.80;99.90
19037;DHT22;9651;49.138;8.900;2023-04-25T23:10:23;7.70;99.90
19037;DHT22;9651;49.138;8.900;2023-04-25T23:14:25;7.60;99.90
19037;DHT22;9651;49.138;8.900;2023-04-25T23:18:28;7.60;99.90
19037;DHT22;9651;49.138;8.900;2023-04-25T23:22:30;7.50;99.90
19037;DHT22;9651;49.138;8.900;2023-04-25T23:26:34;7.30;99.90
19037;DHT22;9651;49.138;8.900;2023-04-25T23:30:36;7.20;99.90
19037;DHT22;9651;49.138;8.900;2023-04-25T23:34:38;7.10;99.90
19037;DHT22;9651;49.138;8.900;2023-04-25T23:38:40;7.10;99.90
19037;DHT22;9651;49.138;8.900;2023-04-25T23:42:43;7.10;99.90
19037;DHT22;9651;49.138;8.900;2023-04-25T23:46:45;7.00;99.90
19037;DHT22;9651;49.138;8.900;2023-04-25T23:50:47;7.00;99.90
19037;DHT22;9651;49.138;8.900;2023-04-25T23:54:49;7.00;99.90
19037;DHT22;9651;49.138;8.900;2023-04-25T23:58:52;6.90;99.90
